Terminal Aerodrome Forecast
Issued by NWS Brownsville, TX

Home | Current Version | Previous Version | Text Only | Print | Product List | Glossary On
Versions: 1 2 3 4 5 6 7 8 9 10 11 12 13 14 15 16 17 18 19 20 21 22 23 24 25
000
FTUS44 KBRO 212300
TAFHRL
TAF
KHRL 212324Z 2200/2224 04007KT P6SM FEW026 SCT045 OVC070
     FM220300 03005KT P6SM SCT030 BKN150
     FM221400 04007KT P6SM VCSH SCT030 BKN060 PROB30 2214/2220 5SM
      -SHRA BKN030=

USA.gov is the U.S. government's official web portal to all federal, state and local government web resources and services.